createdAt,value
2023-05-09T00:00:07.980Z,91.50
2023-05-09T00:01:07.993Z,91.44
2023-05-09T00:02:07.998Z,91.54
2023-05-09T00:03:08.068Z,91.23
2023-05-09T00:04:08.023Z,91.64
2023-05-09T00:05:07.948Z,92.25
2023-05-09T00:06:08.193Z,92.19
2023-05-09T00:07:07.930Z,92.19
2023-05-09T00:08:07.930Z,92.19
2023-05-09T00:09:07.928Z,91.78
2023-05-09T00:10:08.009Z,92.50
2023-05-09T00:11:07.905Z,93.22
2023-05-09T00:12:07.913Z,93.06
2023-05-09T00:13:07.937Z,93.16
2023-05-09T00:14:07.880Z,92.85
2023-05-09T00:15:07.872Z,92.65
2023-05-09T00:16:07.875Z,92.65
2023-05-09T00:17:07.855Z,92.55
2023-05-09T00:18:07.849Z,92.65
2023-05-09T00:19:07.866Z,92.55
2023-05-09T00:20:07.831Z,92.75
2023-05-09T00:22:07.983Z,92.79
2023-05-09T00:23:07.966Z,92.85
2023-05-09T00:24:09.107Z,92.85
2023-05-09T00:25:09.028Z,93.06
2023-05-09T00:26:09.119Z,93.51
2023-05-09T00:27:09.024Z,93.20
2023-05-09T00:28:09.015Z,93.30
2023-05-09T00:29:08.999Z,93.00
2023-05-09T00:30:09.019Z,93.10
2023-05-09T00:31:09.001Z,93.26
2023-05-09T00:32:09.042Z,93.20
2023-05-09T00:33:09.045Z,93.30
2023-05-09T00:34:08.967Z,93.41
2023-05-09T00:35:08.964Z,93.71
2023-05-09T00:36:08.992Z,93.82
2023-05-09T00:37:08.952Z,93.86
2023-05-09T00:38:08.955Z,94.12
2023-05-09T00:39:08.929Z,94.54
2023-05-09T00:40:08.916Z,94.33
2023-05-09T00:41:08.921Z,94.43
2023-05-09T00:42:09.008Z,94.02
2023-05-09T00:43:08.907Z,94.23
2023-05-09T00:44:08.910Z,94.17
2023-05-09T00:45:08.882Z,94.43
2023-05-09T00:46:08.902Z,94.02
2023-05-09T00:47:08.901Z,93.86
2023-05-09T00:48:08.863Z,94.17
2023-05-09T00:49:08.868Z,94.48
2023-05-09T00:50:08.854Z,94.27
2023-05-09T00:51:08.833Z,94.17
2023-05-09T00:52:08.828Z,94.27
2023-05-09T00:53:08.820Z,94.17
2023-05-09T00:54:09.340Z,94.42
2023-05-09T00:55:09.799Z,94.48
2023-05-09T00:56:08.791Z,94.52
2023-05-09T00:57:08.788Z,94.37
2023-05-09T00:58:08.886Z,94.48
2023-05-09T00:59:08.775Z,94.52
2023-05-09T01:00:08.762Z,94.21
2023-05-09T01:01:08.823Z,94.42
2023-05-09T01:02:08.752Z,94.73
2023-05-09T01:03:08.840Z,94.52
2023-05-09T01:04:08.741Z,94.21
2023-05-09T01:05:08.726Z,94.52
2023-05-09T01:06:08.744Z,94.93
2023-05-09T01:07:08.717Z,95.18
2023-05-09T01:08:08.707Z,95.28
2023-05-09T01:09:08.718Z,95.28
2023-05-09T01:10:08.691Z,95.18
2023-05-09T01:11:08.756Z,95.28
2023-05-09T01:12:08.671Z,95.59
2023-05-09T01:13:08.737Z,95.39
2023-05-09T01:14:08.755Z,95.69
2023-05-09T01:15:08.650Z,95.90
2023-05-09T01:16:08.767Z,96.41
2023-05-09T01:17:08.627Z,96.41
2023-05-09T01:18:08.710Z,96.10
2023-05-09T01:19:08.616Z,96.00
2023-05-09T01:20:08.620Z,95.59
2023-05-09T01:21:08.607Z,96.20
2023-05-09T01:22:08.592Z,95.90
2023-05-09T01:23:08.582Z,95.79
2023-05-09T01:24:09.582Z,96.20
2023-05-09T01:25:08.575Z,96.20
2023-05-09T01:26:08.577Z,96.00
2023-05-09T01:27:08.548Z,95.54
2023-05-09T01:28:08.546Z,96.20
2023-05-09T01:29:08.536Z,96.20
2023-05-09T01:30:09.513Z,96.10
2023-05-09T01:31:08.555Z,96.10
2023-05-09T01:32:09.407Z,96.06
2023-05-09T01:33:08.572Z,95.59
2023-05-09T01:34:08.591Z,95.44
2023-05-09T01:35:08.500Z,95.39
2023-05-09T01:36:08.469Z,95.34
2023-05-09T01:37:09.528Z,94.83
2023-05-09T01:38:08.461Z,95.34
2023-05-09T01:39:08.480Z,94.93
2023-05-09T01:40:08.514Z,95.03
2023-05-09T01:41:08.456Z,94.62
2023-05-09T01:42:08.447Z,94.52
2023-05-09T01:43:08.412Z,94.11
2023-05-09T01:44:09.493Z,94.32
2023-05-09T01:45:08.408Z,94.48
2023-05-09T01:46:09.521Z,94.52
2023-05-09T01:47:08.436Z,94.11
2023-05-09T01:48:08.473Z,94.17
2023-05-09T01:49:08.375Z,94.27
2023-05-09T01:50:08.387Z,94.37
2023-05-09T01:51:08.385Z,94.58
2023-05-09T01:52:08.367Z,94.62
2023-05-09T01:53:08.351Z,94.37
2023-05-09T01:54:08.352Z,94.48
2023-05-09T01:55:08.336Z,94.37
2023-05-09T01:56:08.332Z,94.17
2023-05-09T01:57:08.311Z,94.37
2023-05-09T01:58:08.316Z,93.82
2023-05-09T01:59:08.311Z,93.86
2023-05-09T02:00:08.299Z,94.17
2023-05-09T02:01:08.318Z,94.12
2023-05-09T02:02:08.423Z,94.33
2023-05-09T02:03:08.328Z,94.43
2023-05-09T02:04:08.257Z,94.48
2023-05-09T02:05:08.266Z,94.43
2023-05-09T02:06:08.254Z,93.71
2023-05-09T02:07:08.239Z,94.02
2023-05-09T02:08:08.232Z,93.71
2023-05-09T02:09:08.226Z,93.62
2023-05-09T02:10:08.223Z,93.10
2023-05-09T02:11:08.207Z,93.30
2023-05-09T02:12:08.200Z,93.30
2023-05-09T02:13:08.268Z,93.30
2023-05-09T02:14:08.916Z,93.62
2023-05-09T02:15:08.177Z,93.71
2023-05-09T02:16:08.235Z,94.74
2023-05-09T02:17:08.154Z,94.27
2023-05-09T02:18:08.252Z,94.48
2023-05-09T02:19:08.147Z,94.78
2023-05-09T02:20:08.139Z,94.43
2023-05-09T02:21:08.202Z,94.43
2023-05-09T02:22:08.129Z,94.64
2023-05-09T02:23:08.116Z,94.74
2023-05-09T02:24:08.167Z,94.64
2023-05-09T02:25:10.026Z,93.71
2023-05-09T02:26:08.093Z,94.64
2023-05-09T02:27:08.097Z,94.12
2023-05-09T02:28:08.076Z,94.43
2023-05-09T02:29:08.058Z,93.82
2023-05-09T02:30:08.043Z,93.86
2023-05-09T02:31:08.046Z,94.07
2023-05-09T02:32:08.119Z,93.86
2023-05-09T02:33:08.055Z,94.17
2023-05-09T02:34:08.118Z,94.27
2023-05-09T02:35:08.012Z,94.68
2023-05-09T02:36:08.011Z,94.17
2023-05-09T02:37:08.005Z,94.48
2023-05-09T02:38:07.991Z,94.37
2023-05-09T02:39:07.989Z,94.27
2023-05-09T02:40:07.964Z,95.09
2023-05-09T02:41:08.930Z,94.58
2023-05-09T02:42:07.962Z,94.27
2023-05-09T02:43:07.944Z,94.27
2023-05-09T02:44:07.935Z,94.68
2023-05-09T02:45:07.968Z,94.58
2023-05-09T02:46:07.959Z,94.78
2023-05-09T02:47:07.918Z,94.58
2023-05-09T02:48:08.944Z,94.89
2023-05-09T02:49:10.108Z,94.37
2023-05-09T02:50:07.987Z,94.48
2023-05-09T02:51:07.882Z,94.17
2023-05-09T02:52:07.886Z,94.89
2023-05-09T02:53:07.899Z,95.34
2023-05-09T02:54:07.873Z,94.78
2023-05-09T02:55:07.854Z,95.14
2023-05-09T02:56:07.843Z,94.73
2023-05-09T02:57:07.833Z,95.65
2023-05-09T02:58:14.105Z,95.14
2023-05-09T02:59:09.836Z,95.34
2023-05-09T03:00:07.813Z,96.16
2023-05-09T03:01:07.808Z,96.16
2023-05-09T03:02:07.798Z,96.06
2023-05-09T03:03:08.065Z,96.31
2023-05-09T03:04:07.787Z,96.20
2023-05-09T03:05:07.790Z,96.06
2023-05-09T03:06:07.868Z,95.44
2023-05-09T03:07:07.819Z,94.98
2023-05-09T03:08:07.759Z,95.28
2023-05-09T03:09:07.731Z,95.14
2023-05-09T03:10:07.728Z,95.03
2023-05-09T03:11:07.721Z,94.52
2023-05-09T03:12:08.436Z,94.36
2023-05-09T03:13:07.736Z,94.56
2023-05-09T03:14:07.704Z,94.56
2023-05-09T03:15:07.688Z,93.95
2023-05-09T03:16:07.716Z,94.56
2023-05-09T03:17:07.690Z,94.98
2023-05-09T03:18:07.739Z,95.18
2023-05-09T03:19:07.692Z,95.32
2023-05-09T03:20:07.729Z,95.49
2023-05-09T03:21:07.646Z,95.84
2023-05-09T03:22:07.756Z,95.84
2023-05-09T03:23:07.632Z,96.15
2023-05-09T03:24:07.710Z,96.35
2023-05-09T03:25:07.654Z,96.15
2023-05-09T03:26:07.614Z,96.25
2023-05-09T03:27:07.603Z,96.35
2023-05-09T03:28:07.588Z,96.00
2023-05-09T03:29:07.597Z,95.39
2023-05-09T03:30:07.569Z,95.64
2023-05-09T03:31:07.583Z,95.64
2023-05-09T03:32:07.586Z,95.28
2023-05-09T03:33:07.595Z,95.32
2023-05-09T03:34:07.554Z,95.18
2023-05-09T03:35:07.529Z,95.18
2023-05-09T03:36:07.530Z,95.28
2023-05-09T03:37:07.525Z,95.49
2023-05-09T03:38:07.622Z,96.35
2023-05-09T03:39:07.514Z,96.35
2023-05-09T03:40:07.517Z,96.25
2023-05-09T03:41:07.492Z,96.15
2023-05-09T03:42:07.533Z,96.04
2023-05-09T03:43:07.488Z,96.31
2023-05-09T03:44:07.479Z,96.10
2023-05-09T03:45:07.480Z,95.59
2023-05-09T03:46:07.461Z,95.43
2023-05-09T03:47:07.553Z,96.20
2023-05-09T03:48:08.410Z,96.41
2023-05-09T03:49:07.949Z,96.20
2023-05-09T03:50:07.426Z,96.35
2023-05-09T03:51:07.426Z,96.45
2023-05-09T03:52:07.420Z,96.25
2023-05-09T03:53:07.428Z,96.15
2023-05-09T03:54:07.492Z,96.35
2023-05-09T03:55:08.412Z,96.45
2023-05-09T03:56:07.376Z,96.35
2023-05-09T03:57:08.367Z,96.15
2023-05-09T03:58:07.365Z,96.15
2023-05-09T03:59:07.408Z,96.25
2023-05-09T04:00:07.949Z,95.64
2023-05-09T04:01:07.349Z,95.12
2023-05-09T04:02:07.358Z,94.77
2023-05-09T04:03:07.361Z,94.92
2023-05-09T04:04:07.481Z,94.92
2023-05-09T04:05:07.328Z,95.32
2023-05-09T04:06:07.316Z,95.27
2023-05-09T04:07:07.296Z,95.23
2023-05-09T04:08:07.291Z,95.43
2023-05-09T04:09:07.282Z,95.53
2023-05-09T04:10:07.369Z,95.23
2023-05-09T04:11:07.280Z,94.71
2023-05-09T04:12:07.252Z,95.02
2023-05-09T04:13:07.255Z,94.67
2023-05-09T04:14:07.387Z,94.77
2023-05-09T04:15:07.238Z,94.51
2023-05-09T04:16:07.237Z,94.67
2023-05-09T04:17:07.287Z,94.67
2023-05-09T04:18:07.263Z,94.56
2023-05-09T04:19:07.213Z,94.67
2023-05-09T04:20:07.186Z,94.36
2023-05-09T04:21:07.210Z,94.42
2023-05-09T04:22:07.172Z,93.90
2023-05-09T04:23:07.174Z,93.96
2023-05-09T04:24:07.175Z,93.20
2023-05-09T04:25:07.153Z,92.03
2023-05-09T04:26:07.157Z,90.56
2023-05-09T04:27:07.134Z,89.74
2023-05-09T04:28:07.178Z,89.03
2023-05-09T04:29:07.131Z,88.92
2023-05-09T04:30:07.119Z,88.65
2023-05-09T04:31:07.268Z,88.82
2023-05-09T04:32:07.129Z,88.65
2023-05-09T04:33:07.105Z,88.62
2023-05-09T04:34:07.089Z,88.78
2023-05-09T04:35:07.074Z,87.85
2023-05-09T04:36:07.083Z,87.55
2023-05-09T04:37:07.095Z,87.00
2023-05-09T04:38:07.065Z,86.61
2023-05-09T04:39:07.041Z,85.14
2023-05-09T04:40:07.051Z,83.63
2023-05-09T04:41:07.047Z,82.78
2023-05-09T04:42:07.127Z,82.13
2023-05-09T04:43:07.028Z,80.36
2023-05-09T04:44:07.002Z,79.16
2023-05-09T04:45:06.998Z,77.91
2023-05-09T04:46:07.002Z,77.29
2023-05-09T04:47:07.005Z,76.34
2023-05-09T04:48:07.020Z,75.49
2023-05-09T04:49:06.963Z,74.99
2023-05-09T04:50:06.963Z,75.90
2023-05-09T04:51:06.950Z,74.38
2023-05-09T04:52:06.955Z,75.40
2023-05-09T04:53:06.939Z,75.09
2023-05-09T04:54:06.922Z,74.95
2023-05-09T04:55:06.917Z,74.01
2023-05-09T04:56:06.912Z,73.16
2023-05-09T04:57:17.216Z,72.55
2023-05-09T04:58:09.006Z,72.52
2023-05-09T04:59:07.867Z,71.84
2023-05-09T05:00:06.879Z,70.45
2023-05-09T05:01:06.880Z,68.57
2023-05-09T05:02:07.433Z,68.57
2023-05-09T05:03:06.903Z,67.29
2023-05-09T05:04:06.859Z,66.08
2023-05-09T05:05:12.086Z,67.25
2023-05-09T05:06:08.846Z,67.96
2023-05-09T05:07:06.830Z,67.89
2023-05-09T05:08:06.856Z,68.19
2023-05-09T05:09:06.804Z,68.03
2023-05-09T05:10:06.797Z,66.18
2023-05-09T05:11:06.807Z,65.17
2023-05-09T05:12:09.194Z,64.94
2023-05-09T05:13:06.839Z,65.04
2023-05-09T05:14:06.874Z,65.04
2023-05-09T05:15:06.766Z,65.95
2023-05-09T05:16:06.826Z,65.81
2023-05-09T05:17:06.743Z,64.54
2023-05-09T05:18:06.769Z,62.66
2023-05-09T05:19:06.722Z,61.70
2023-05-09T05:20:06.755Z,60.97
2023-05-09T05:21:06.712Z,60.36
2023-05-09T05:22:06.705Z,59.66
2023-05-09T05:23:06.707Z,60.39
2023-05-09T05:24:06.698Z,60.49
2023-05-09T05:25:06.681Z,60.09
2023-05-09T05:26:06.682Z,59.94
2023-05-09T05:27:06.668Z,58.27
2023-05-09T05:28:06.690Z,57.57
2023-05-09T05:29:06.713Z,58.47
2023-05-09T05:30:06.757Z,58.01
2023-05-09T05:31:06.764Z,55.45
2023-05-09T05:32:06.747Z,55.13
2023-05-09T05:33:06.777Z,55.02
2023-05-09T05:34:06.700Z,53.19
2023-05-09T05:35:06.671Z,53.77
2023-05-09T05:36:06.710Z,53.27
2023-05-09T05:37:06.707Z,53.07
2023-05-09T05:38:06.591Z,53.05
2023-05-09T05:39:06.574Z,52.94
2023-05-09T05:40:06.572Z,53.12
2023-05-09T05:41:06.919Z,52.92
2023-05-09T05:42:06.575Z,52.64
2023-05-09T05:43:06.563Z,53.89
2023-05-09T05:44:06.541Z,54.30
2023-05-09T05:45:08.421Z,54.20
2023-05-09T05:46:07.607Z,53.09
2023-05-09T05:47:06.513Z,53.59
2023-05-09T05:48:06.574Z,53.05
2023-05-09T05:49:06.510Z,52.74
2023-05-09T05:50:07.486Z,52.64
2023-05-09T05:51:06.474Z,51.54
2023-05-09T05:52:06.464Z,53.19
2023-05-09T05:53:06.524Z,53.62
2023-05-09T05:54:06.460Z,54.35
2023-05-09T05:55:06.467Z,53.25
2023-05-09T05:56:06.453Z,53.82
2023-05-09T05:58:13.263Z,53.77
2023-05-09T05:59:13.650Z,54.80
2023-05-09T06:00:16.136Z,54.90
2023-05-09T06:01:14.618Z,54.60
2023-05-09T06:02:14.394Z,54.55
2023-05-09T06:03:14.519Z,53.19
2023-05-09T06:04:14.438Z,51.89
2023-05-09T06:05:14.551Z,51.69
2023-05-09T06:06:14.307Z,53.30
2023-05-09T06:07:14.282Z,52.64
2023-05-09T06:08:14.324Z,52.74
2023-05-09T06:09:14.289Z,52.94
2023-05-09T06:10:14.265Z,51.39
2023-05-09T06:11:14.267Z,50.45
2023-05-09T06:12:14.283Z,50.27
2023-05-09T06:13:14.288Z,49.97
2023-05-09T06:14:14.239Z,50.95
2023-05-09T06:15:14.469Z,50.77
2023-05-09T06:16:19.645Z,50.37
2023-05-09T06:17:16.342Z,50.89
2023-05-09T06:18:14.210Z,50.52
2023-05-09T06:19:14.219Z,51.54
2023-05-09T06:20:14.198Z,51.27
2023-05-09T06:21:14.189Z,52.09
2023-05-09T06:22:14.189Z,51.51
2023-05-09T06:23:14.168Z,51.39
2023-05-09T06:24:23.500Z,51.49
2023-05-09T06:25:16.374Z,51.59
2023-05-09T06:26:14.144Z,50.74
2023-05-09T06:27:14.234Z,49.69
2023-05-09T06:28:14.640Z,48.45
2023-05-09T06:29:14.717Z,48.25
2023-05-09T06:30:24.657Z,48.45
2023-05-09T06:31:16.162Z,47.63
2023-05-09T06:32:14.174Z,47.42
2023-05-09T06:33:14.188Z,48.45
2023-05-09T06:34:14.086Z,47.47
2023-05-09T06:35:14.284Z,48.07
2023-05-09T06:36:14.060Z,48.87
2023-05-09T06:37:14.061Z,48.25
2023-05-09T06:38:14.049Z,47.63
2023-05-09T06:39:14.038Z,47.33
2023-05-09T06:40:14.043Z,46.50
2023-05-09T06:41:14.041Z,46.50
2023-05-09T06:42:14.014Z,46.91
2023-05-09T06:43:14.031Z,47.18
2023-05-09T06:44:14.999Z,46.76
2023-05-09T06:45:14.149Z,46.54
2023-05-09T06:46:14.019Z,46.01
2023-05-09T06:47:13.978Z,45.62
2023-05-09T06:48:14.649Z,46.04
2023-05-09T06:49:14.065Z,45.42
2023-05-09T06:50:14.647Z,45.00
2023-05-09T06:51:13.948Z,45.20
2023-05-09T06:52:13.934Z,45.30
2023-05-09T06:53:14.683Z,45.90
2023-05-09T06:54:13.928Z,45.40
2023-05-09T06:55:14.166Z,45.70
2023-05-09T06:56:13.910Z,45.18
2023-05-09T06:57:13.901Z,44.66
2023-05-09T06:58:13.897Z,43.24
2023-05-09T06:59:13.884Z,43.42
2023-05-09T07:00:13.892Z,43.32
2023-05-09T07:01:13.918Z,43.13
2023-05-09T07:02:13.852Z,43.54
2023-05-09T07:03:13.868Z,44.36
2023-05-09T07:04:13.853Z,44.26
2023-05-09T07:05:14.106Z,43.94
2023-05-09T07:06:13.834Z,43.02
2023-05-09T07:07:13.819Z,42.93
2023-05-09T07:08:13.807Z,42.85
2023-05-09T07:09:13.814Z,44.28
2023-05-09T07:10:13.830Z,45.08
2023-05-09T07:11:13.816Z,45.50
2023-05-09T07:12:13.785Z,45.40
2023-05-09T07:13:13.827Z,45.20
2023-05-09T07:14:13.780Z,45.00
2023-05-09T07:15:15.563Z,45.06
2023-05-09T07:16:14.782Z,44.96
2023-05-09T07:17:22.972Z,45.06
2023-05-09T07:18:15.725Z,45.06
2023-05-09T07:19:13.748Z,44.34
2023-05-09T07:20:13.729Z,44.24
2023-05-09T07:21:13.807Z,43.82
2023-05-09T07:22:13.747Z,43.54
2023-05-09T07:23:14.662Z,43.84
2023-05-09T07:24:13.736Z,45.06
2023-05-09T07:25:13.780Z,45.08
2023-05-09T07:26:14.275Z,45.28
2023-05-09T07:27:13.699Z,45.62
2023-05-09T07:28:13.645Z,46.01
2023-05-09T07:29:13.643Z,45.28
2023-05-09T07:30:14.418Z,45.06
2023-05-09T07:31:13.658Z,45.45
2023-05-09T07:32:13.741Z,44.64
2023-05-09T07:33:13.663Z,44.76
2023-05-09T07:34:13.639Z,45.06
2023-05-09T07:35:13.735Z,45.15
2023-05-09T07:36:13.588Z,45.28
2023-05-09T07:37:15.377Z,46.42
2023-05-09T07:38:13.580Z,47.74
2023-05-09T07:39:13.567Z,47.61
2023-05-09T07:40:13.820Z,47.11
2023-05-09T07:41:13.560Z,46.91
2023-05-09T07:42:13.552Z,46.81
2023-05-09T07:43:13.542Z,46.42
2023-05-09T07:44:13.524Z,46.81
2023-05-09T07:45:13.726Z,46.67
2023-05-09T07:46:13.556Z,46.25
2023-05-09T07:47:13.510Z,45.63
2023-05-09T07:48:13.503Z,45.36
2023-05-09T07:49:13.507Z,45.37
2023-05-09T07:50:13.496Z,45.57
2023-05-09T07:51:13.483Z,46.20
2023-05-09T07:52:13.475Z,46.72
2023-05-09T07:53:13.556Z,46.99
2023-05-09T07:54:13.449Z,46.27
2023-05-09T07:55:13.805Z,46.27
2023-05-09T07:56:13.434Z,45.26
2023-05-09T07:57:13.435Z,45.51
2023-05-09T07:58:14.262Z,44.00
2023-05-09T07:59:13.442Z,44.00
2023-05-09T08:00:13.403Z,44.07
2023-05-09T08:01:13.421Z,42.96
2023-05-09T08:02:13.443Z,42.66
2023-05-09T08:03:13.517Z,43.68
2023-05-09T08:04:13.495Z,43.20
2023-05-09T08:05:13.698Z,43.72
2023-05-09T08:06:13.358Z,44.70
2023-05-09T08:07:13.408Z,44.34
2023-05-09T08:08:13.338Z,45.37
2023-05-09T08:09:13.456Z,46.81
2023-05-09T08:10:13.334Z,46.72
2023-05-09T08:11:13.326Z,46.94
2023-05-09T08:12:13.335Z,46.61
2023-05-09T08:13:13.319Z,47.51
2023-05-09T08:14:15.035Z,47.14
2023-05-09T08:15:13.769Z,47.78
2023-05-09T08:16:13.337Z,48.40
2023-05-09T08:17:13.294Z,48.08
2023-05-09T08:18:13.285Z,47.98
2023-05-09T08:19:13.275Z,48.38
2023-05-09T08:20:13.274Z,47.80
2023-05-09T08:21:14.280Z,47.80
2023-05-09T08:22:13.248Z,48.80
2023-05-09T08:23:13.247Z,48.80
2023-05-09T08:24:13.235Z,48.60
2023-05-09T08:25:13.563Z,47.96
2023-05-09T08:26:13.204Z,47.93
2023-05-09T08:27:13.199Z,47.51
2023-05-09T08:28:13.187Z,46.69
2023-05-09T08:29:13.180Z,46.61
2023-05-09T08:30:13.198Z,47.21
2023-05-09T08:31:13.204Z,47.61
2023-05-09T08:32:13.204Z,47.14
2023-05-09T08:33:13.207Z,48.78
2023-05-09T08:34:13.160Z,48.50
2023-05-09T08:35:13.288Z,49.44
2023-05-09T08:36:13.189Z,50.57
2023-05-09T08:37:15.095Z,51.02
2023-05-09T08:38:14.133Z,51.34
2023-05-09T08:39:13.106Z,51.12
2023-05-09T08:40:13.895Z,51.64
2023-05-09T08:41:13.201Z,51.14
2023-05-09T08:42:13.101Z,51.34
2023-05-09T08:43:13.088Z,51.44
2023-05-09T08:44:13.074Z,51.32
2023-05-09T08:45:13.081Z,50.92
2023-05-09T08:46:13.076Z,50.74
2023-05-09T08:47:13.049Z,51.02
2023-05-09T08:48:13.042Z,50.72
2023-05-09T08:49:13.042Z,50.99
2023-05-09T08:50:13.380Z,50.87
2023-05-09T08:51:13.037Z,50.45
2023-05-09T08:52:13.002Z,50.54
2023-05-09T08:53:13.725Z,50.24
2023-05-09T08:54:13.009Z,50.74
2023-05-09T08:55:13.037Z,51.09
2023-05-09T08:56:12.985Z,51.84
2023-05-09T08:57:13.082Z,51.77
2023-05-09T08:58:12.979Z,51.54
2023-05-09T08:59:12.983Z,51.34
2023-05-09T09:00:13.147Z,51.64
2023-05-09T09:01:15.742Z,52.74
2023-05-09T09:02:12.971Z,53.24
2023-05-09T09:04:19.865Z,52.72
2023-05-09T09:05:40.053Z,52.12
2023-05-09T09:06:20.798Z,51.32
2023-05-09T09:07:20.785Z,51.32
2023-05-09T09:08:19.803Z,51.84
2023-05-09T09:09:20.629Z,51.94
2023-05-09T09:10:19.779Z,51.57
2023-05-09T09:11:20.860Z,51.77
2023-05-09T09:12:20.947Z,51.67
2023-05-09T09:13:20.888Z,51.17
2023-05-09T09:14:20.853Z,51.07
2023-05-09T09:15:20.850Z,51.17
2023-05-09T09:16:20.970Z,50.96
2023-05-09T09:17:20.858Z,51.37
2023-05-09T09:18:21.696Z,51.19
2023-05-09T09:19:20.809Z,51.57
2023-05-09T09:20:20.833Z,51.57
2023-05-09T09:21:20.939Z,51.46
2023-05-09T09:22:20.814Z,51.37
2023-05-09T09:23:21.625Z,51.44
2023-05-09T09:25:27.477Z,51.27
2023-05-09T09:26:27.476Z,51.46
2023-05-09T09:27:27.571Z,50.87
2023-05-09T09:28:27.457Z,50.76
2023-05-09T09:29:27.445Z,50.76
2023-05-09T09:30:27.432Z,50.76
2023-05-09T09:31:27.450Z,50.94
2023-05-09T09:32:27.477Z,50.02
2023-05-09T09:33:27.430Z,50.72
2023-05-09T09:34:27.432Z,50.64
2023-05-09T09:35:27.397Z,50.74
2023-05-09T09:36:27.392Z,51.17
2023-05-09T09:37:28.497Z,50.87
2023-05-09T09:38:29.469Z,50.54
2023-05-09T09:39:29.022Z,50.54
2023-05-09T09:40:28.473Z,50.72
2023-05-09T09:41:28.456Z,50.42
2023-05-09T09:42:28.455Z,50.09
2023-05-09T09:43:30.396Z,49.90
2023-05-09T09:44:28.496Z,49.69
2023-05-09T09:45:28.425Z,49.40
2023-05-09T09:46:28.484Z,48.77
2023-05-09T09:47:28.456Z,49.65
2023-05-09T09:48:28.750Z,48.57
2023-05-09T09:49:28.405Z,49.69
2023-05-09T09:50:28.384Z,48.67
2023-05-09T09:51:28.386Z,48.69
2023-05-09T09:52:30.210Z,49.52
2023-05-09T09:53:28.373Z,50.67
2023-05-09T09:54:28.401Z,50.24
2023-05-09T09:55:28.386Z,50.64
2023-05-09T09:56:28.354Z,51.14
2023-05-09T09:57:29.242Z,50.64
2023-05-09T09:58:28.318Z,50.49
2023-05-09T09:59:29.430Z,50.20
2023-05-09T10:00:30.256Z,48.87
2023-05-09T10:01:30.205Z,49.87
2023-05-09T10:02:28.318Z,49.27
2023-05-09T10:03:28.310Z,48.47
2023-05-09T10:04:28.272Z,48.47
2023-05-09T10:05:28.257Z,48.17
2023-05-09T10:06:29.144Z,48.75
2023-05-09T10:07:28.287Z,48.75
2023-05-09T10:08:31.156Z,49.05
2023-05-09T10:09:29.255Z,48.25
2023-05-09T10:10:30.317Z,48.75
2023-05-09T10:11:28.223Z,48.25
2023-05-09T10:12:28.230Z,48.55
2023-05-09T10:13:28.287Z,49.15
2023-05-09T10:14:29.209Z,49.67
2023-05-09T10:15:30.118Z,48.87
2023-05-09T10:16:42.605Z,49.17
2023-05-09T10:17:30.285Z,49.99
2023-05-09T10:18:29.180Z,50.99
2023-05-09T10:19:28.158Z,50.72
2023-05-09T10:20:28.663Z,50.92
2023-05-09T10:21:29.161Z,50.82
2023-05-09T10:22:28.138Z,50.12
2023-05-09T10:23:29.639Z,50.59
2023-05-09T10:24:28.149Z,50.70
2023-05-09T10:25:28.165Z,50.27
2023-05-09T10:26:28.146Z,49.87
2023-05-09T10:27:28.096Z,49.57
2023-05-09T10:28:28.094Z,49.49
2023-05-09T10:29:28.075Z,50.82
2023-05-09T10:30:30.330Z,51.22
2023-05-09T10:31:28.291Z,50.84
2023-05-09T10:32:28.082Z,51.44
2023-05-09T10:33:28.064Z,51.44
2023-05-09T10:34:28.045Z,51.04
2023-05-09T10:35:28.038Z,51.64
2023-05-09T10:36:28.022Z,51.37
2023-05-09T10:37:28.032Z,51.46
2023-05-09T10:38:28.009Z,51.04
2023-05-09T10:39:28.039Z,50.94
2023-05-09T10:40:28.019Z,51.02
2023-05-09T10:41:27.989Z,50.59
2023-05-09T10:42:27.974Z,50.39
2023-05-09T10:43:27.967Z,50.89
2023-05-09T10:44:27.974Z,50.67
2023-05-09T10:45:27.968Z,50.04
2023-05-09T10:46:28.015Z,49.95
2023-05-09T10:47:28.101Z,50.27
2023-05-09T10:48:27.938Z,51.20
2023-05-09T10:49:27.932Z,50.97
2023-05-09T10:50:28.652Z,50.77
2023-05-09T10:51:27.940Z,50.77
2023-05-09T10:52:29.737Z,50.37
2023-05-09T10:53:27.898Z,49.17
2023-05-09T10:54:29.304Z,50.84
2023-05-09T10:55:27.937Z,48.77
2023-05-09T10:56:27.864Z,49.47
2023-05-09T10:57:27.865Z,49.55
2023-05-09T10:58:27.859Z,49.12
2023-05-09T10:59:28.676Z,48.68
2023-05-09T11:00:27.829Z,48.80
2023-05-09T11:01:27.828Z,48.00
2023-05-09T11:02:27.850Z,48.63
2023-05-09T11:03:29.245Z,49.52
2023-05-09T11:04:29.659Z,49.52
2023-05-09T11:06:36.972Z,48.68
2023-05-09T11:07:36.964Z,48.85
2023-05-09T11:08:36.944Z,48.53
2023-05-09T11:09:37.452Z,48.13
2023-05-09T11:10:36.922Z,47.14
2023-05-09T11:11:36.916Z,48.28
2023-05-09T11:12:37.470Z,48.18
2023-05-09T11:13:36.928Z,48.50
2023-05-09T11:14:38.477Z,49.00
2023-05-09T11:15:36.904Z,48.80
2023-05-09T11:16:36.986Z,49.20
2023-05-09T11:17:36.919Z,49.08
2023-05-09T11:18:36.976Z,47.48
2023-05-09T11:19:36.866Z,48.08
2023-05-09T11:20:36.880Z,48.18
2023-05-09T11:21:36.838Z,48.70
2023-05-09T11:22:37.867Z,48.32
2023-05-09T11:23:36.838Z,48.63
2023-05-09T11:24:36.823Z,48.90
2023-05-09T11:25:36.800Z,49.50
2023-05-09T11:26:36.805Z,48.78
2023-05-09T11:27:37.914Z,48.80
2023-05-09T11:28:37.905Z,48.80
2023-05-09T11:29:37.882Z,48.80
2023-05-09T11:30:37.890Z,48.90
2023-05-09T11:31:37.917Z,48.58
2023-05-09T11:32:37.903Z,47.93
2023-05-09T11:33:41.558Z,47.41
2023-05-09T11:34:37.839Z,46.51
2023-05-09T11:35:38.485Z,46.69
2023-05-09T11:36:39.560Z,47.59
2023-05-09T11:37:37.832Z,47.59
2023-05-09T11:38:38.475Z,47.19
2023-05-09T11:39:37.809Z,46.59
2023-05-09T11:40:40.576Z,46.79
2023-05-09T11:41:39.469Z,46.72
2023-05-09T11:42:38.579Z,46.89
2023-05-09T11:43:37.764Z,46.44
2023-05-09T11:44:37.772Z,47.66
2023-05-09T11:45:38.065Z,46.91
2023-05-09T11:46:56.423Z,46.30
2023-05-09T11:47:37.823Z,46.27
2023-05-09T11:48:38.483Z,45.65
2023-05-09T11:49:37.819Z,45.65
2023-05-09T11:50:37.746Z,45.65
2023-05-09T11:51:37.736Z,45.67
2023-05-09T11:52:41.490Z,46.30
2023-05-09T11:53:40.483Z,45.40
2023-05-09T11:54:38.063Z,45.15
2023-05-09T11:55:37.711Z,43.84
2023-05-09T11:56:39.589Z,42.83
2023-05-09T11:57:37.678Z,43.84
2023-05-09T11:58:42.488Z,43.72
2023-05-09T11:59:38.579Z,44.44
2023-05-09T12:00:38.478Z,44.04
2023-05-09T12:01:37.662Z,44.04
2023-05-09T12:02:37.758Z,44.12
2023-05-09T12:03:39.638Z,43.82
2023-05-09T12:04:37.643Z,43.60
2023-05-09T12:05:37.724Z,43.01
2023-05-09T12:06:37.609Z,42.91
2023-05-09T12:07:37.602Z,42.58
2023-05-09T12:08:37.595Z,42.49
2023-05-09T12:09:37.597Z,42.88
2023-05-09T12:10:37.617Z,42.51
2023-05-09T12:11:38.171Z,42.91
2023-05-09T12:12:37.562Z,42.19
2023-05-09T12:13:37.568Z,42.88
2023-05-09T12:14:37.540Z,42.29
2023-05-09T12:15:37.804Z,41.30
2023-05-09T12:16:37.544Z,41.91
2023-05-09T12:17:38.501Z,41.34
2023-05-09T12:18:38.518Z,41.02
2023-05-09T12:19:37.503Z,41.02
2023-05-09T12:20:37.530Z,41.31
2023-05-09T12:21:37.602Z,42.21
2023-05-09T12:22:37.548Z,41.93
2023-05-09T12:23:37.475Z,42.63
2023-05-09T12:24:37.991Z,41.93
2023-05-09T12:25:37.492Z,42.53
2023-05-09T12:26:37.463Z,42.13
2023-05-09T12:27:37.491Z,43.66
2023-05-09T12:28:37.451Z,43.07
2023-05-09T12:29:37.433Z,42.77
2023-05-09T12:30:37.433Z,42.85
2023-05-09T12:31:37.446Z,42.57
2023-05-09T12:32:37.458Z,42.86
2023-05-09T12:33:37.407Z,42.97
2023-05-09T12:34:38.992Z,42.77
2023-05-09T12:35:37.391Z,42.67
2023-05-09T12:36:37.369Z,42.57
2023-05-09T12:37:37.399Z,42.57
2023-05-09T12:39:44.198Z,41.46
2023-05-09T12:40:44.208Z,41.16
2023-05-09T12:41:57.469Z,42.35
2023-05-09T12:42:47.315Z,42.65
2023-05-09T12:43:45.266Z,42.55
2023-05-09T12:44:45.266Z,43.05
2023-05-09T12:45:45.248Z,42.25
2023-05-09T12:46:45.292Z,42.15
2023-05-09T12:47:45.304Z,43.05
2023-05-09T12:48:45.222Z,42.55
2023-05-09T12:49:45.229Z,42.55
2023-05-09T12:50:45.277Z,42.65
2023-05-09T12:51:45.241Z,42.67
2023-05-09T12:53:01.468Z,42.57
2023-05-09T12:53:47.180Z,42.67
2023-05-09T12:54:46.178Z,41.69
2023-05-09T12:55:45.171Z,42.27
2023-05-09T12:56:46.227Z,42.09
2023-05-09T12:57:45.163Z,43.41
2023-05-09T12:58:45.156Z,43.63